createdAt,value
2023-02-03T00:00:33.553Z,3.63
2023-02-03T00:01:38.900Z,3.65
2023-02-03T00:02:42.635Z,3.69
2023-02-03T00:03:48.601Z,3.68
2023-02-03T00:04:52.808Z,3.71
2023-02-03T00:05:56.934Z,3.71
2023-02-03T00:07:00.689Z,3.64
2023-02-03T00:08:09.771Z,3.57
2023-02-03T00:09:16.395Z,3.63
2023-02-03T00:10:21.543Z,3.70
2023-02-03T00:11:31.663Z,3.71
2023-02-03T00:12:37.655Z,3.60
2023-02-03T00:13:42.195Z,3.62
2023-02-03T00:14:45.987Z,3.64
2023-02-03T00:15:49.647Z,3.68
2023-02-03T00:16:56.105Z,3.68
2023-02-03T00:17:59.844Z,3.71
2023-02-03T00:19:04.155Z,3.76
2023-02-03T00:20:19.811Z,3.59
2023-02-03T00:21:23.793Z,3.66
2023-02-03T00:22:29.061Z,3.66
2023-02-03T00:23:33.340Z,3.68
2023-02-03T00:24:39.288Z,3.62
2023-02-03T00:25:49.320Z,3.67
2023-02-03T00:26:59.965Z,3.73
2023-02-03T00:28:04.291Z,3.67
2023-02-03T00:29:09.282Z,3.69
2023-02-03T00:30:17.983Z,3.72
2023-02-03T00:31:25.253Z,3.72
2023-02-03T00:32:32.680Z,3.77
2023-02-03T00:33:39.811Z,3.72
2023-02-03T00:34:45.697Z,3.76
2023-02-03T00:35:52.329Z,3.77
2023-02-03T00:36:58.273Z,3.80
2023-02-03T00:38:06.235Z,3.81
2023-02-03T00:39:13.137Z,3.79
2023-02-03T00:40:30.508Z,3.78
2023-02-03T00:41:34.368Z,3.78
2023-02-03T00:42:38.592Z,3.75
2023-02-03T00:43:44.174Z,3.76
2023-02-03T00:44:55.798Z,3.78
2023-02-03T00:46:02.735Z,3.75
2023-02-03T00:47:08.180Z,3.78
2023-02-03T00:48:23.492Z,3.78
2023-02-03T00:49:30.487Z,3.75
2023-02-03T00:50:34.580Z,3.78
2023-02-03T00:51:45.798Z,3.74
2023-02-03T00:52:55.846Z,3.73
2023-02-03T00:54:01.004Z,3.73
2023-02-03T00:56:30.465Z,3.71
2023-02-03T00:57:34.431Z,3.73
2023-02-03T00:58:42.055Z,3.71
2023-02-03T00:59:46.230Z,3.63
2023-02-03T01:00:51.381Z,3.64
2023-02-03T01:01:57.775Z,3.67
2023-02-03T01:03:04.354Z,3.64
2023-02-03T01:04:08.842Z,3.71
2023-02-03T01:05:14.510Z,3.72
2023-02-03T01:06:22.058Z,3.77
2023-02-03T01:07:33.326Z,3.78
2023-02-03T01:08:37.202Z,3.77
2023-02-03T01:09:46.960Z,3.76
2023-02-03T01:10:51.392Z,3.77
2023-02-03T01:12:00.875Z,3.64
2023-02-03T01:13:05.294Z,3.69
2023-02-03T01:14:19.019Z,3.75
2023-02-03T01:15:23.967Z,3.71
2023-02-03T01:16:35.425Z,3.78
2023-02-03T01:17:39.145Z,3.76
2023-02-03T01:18:44.131Z,3.77
2023-02-03T01:19:54.087Z,3.80
2023-02-03T01:21:34.528Z,3.74
2023-02-03T01:22:57.504Z,3.56
2023-02-03T01:24:02.596Z,3.55
2023-02-03T01:25:18.400Z,3.52
2023-02-03T01:26:26.359Z,3.48
2023-02-03T01:27:32.282Z,3.48
2023-02-03T01:28:36.791Z,3.55
2023-02-03T01:29:42.555Z,3.58
2023-02-03T01:30:46.611Z,3.56
2023-02-03T01:32:04.662Z,3.56
2023-02-03T01:33:10.314Z,3.51
2023-02-03T01:34:23.035Z,3.52
2023-02-03T01:35:26.825Z,3.50
2023-02-03T01:36:34.369Z,3.54
2023-02-03T01:37:37.927Z,3.53
2023-02-03T01:38:42.016Z,3.50
2023-02-03T01:39:45.681Z,3.41
2023-02-03T01:40:49.396Z,3.35
2023-02-03T01:41:55.978Z,3.43
2023-02-03T01:42:59.941Z,3.37
2023-02-03T01:44:40.709Z,3.26
2023-02-03T01:45:46.415Z,3.36
2023-02-03T01:46:53.643Z,3.43
2023-02-03T01:49:47.757Z,3.41
2023-02-03T01:51:08.205Z,3.40
2023-02-03T01:52:33.353Z,3.41
2023-02-03T01:53:39.488Z,3.37
2023-02-03T01:54:50.911Z,3.39
2023-02-03T01:56:01.412Z,3.47
2023-02-03T01:57:23.886Z,3.51
2023-02-03T01:58:43.388Z,3.53
2023-02-03T01:59:54.349Z,3.52
2023-02-03T02:01:02.960Z,3.54
2023-02-03T02:03:56.463Z,3.45
2023-02-03T02:05:31.866Z,3.47
2023-02-03T02:06:57.409Z,3.46
2023-02-03T02:08:04.952Z,3.42
2023-02-03T02:09:20.206Z,3.43
2023-02-03T02:10:45.641Z,3.39
2023-02-03T02:11:57.081Z,3.40
2023-02-03T02:13:08.820Z,3.46
2023-02-03T02:14:26.151Z,3.39
2023-02-03T02:16:24.010Z,3.37
2023-02-03T02:18:34.308Z,3.35
2023-02-03T02:20:16.264Z,3.20
2023-02-03T02:22:16.225Z,3.16
2023-02-03T02:24:19.341Z,3.20
2023-02-03T02:25:47.621Z,3.21
2023-02-03T02:28:00.642Z,3.29
2023-02-03T02:30:27.535Z,3.35
2023-02-03T02:32:06.277Z,3.30
2023-02-03T02:33:10.928Z,3.34
2023-02-03T02:34:31.625Z,3.27
2023-02-03T02:36:12.277Z,3.32
2023-02-03T02:37:54.329Z,3.15
2023-02-03T02:39:21.897Z,3.21
2023-02-03T02:40:50.880Z,3.23
2023-02-03T02:42:13.953Z,3.23
2023-02-03T02:43:44.522Z,3.25
2023-02-03T02:45:23.152Z,3.16
2023-02-03T02:46:52.151Z,3.18
2023-02-03T02:48:58.619Z,3.18
2023-02-03T02:50:25.849Z,3.15
2023-02-03T02:51:35.343Z,3.12
2023-02-03T02:52:50.398Z,3.15
2023-02-03T02:54:12.488Z,3.16
2023-02-03T02:55:33.994Z,3.16
2023-02-03T02:56:44.029Z,3.17
2023-02-03T02:57:57.859Z,3.16
2023-02-03T02:59:06.353Z,3.15
2023-02-03T03:01:59.442Z,3.03
2023-02-03T03:03:24.299Z,3.03
2023-02-03T03:04:37.893Z,2.98
2023-02-03T03:05:53.976Z,2.98
2023-02-03T03:07:12.338Z,3.07
2023-02-03T03:10:11.672Z,3.03
2023-02-03T03:11:18.412Z,3.02
2023-02-03T03:12:28.534Z,2.99
2023-02-03T03:13:44.822Z,2.95
2023-02-03T03:15:30.073Z,2.90
2023-02-03T03:16:40.821Z,2.86
2023-02-03T03:18:32.833Z,2.83
2023-02-03T03:19:54.205Z,2.83
2023-02-03T03:21:06.243Z,2.83
2023-02-03T03:22:25.936Z,2.80
2023-02-03T03:23:43.183Z,2.84
2023-02-03T03:24:54.624Z,2.82
2023-02-03T03:26:31.721Z,2.78
2023-02-03T03:27:46.029Z,2.73
2023-02-03T03:29:07.070Z,2.70
2023-02-03T03:30:38.554Z,2.73
2023-02-03T03:31:49.300Z,2.66
2023-02-03T03:32:54.105Z,2.53
2023-02-03T03:33:58.033Z,2.59
2023-02-03T03:35:05.716Z,2.64
2023-02-03T03:36:15.403Z,2.64
2023-02-03T03:37:30.001Z,2.55
2023-02-03T03:38:45.435Z,2.57
2023-02-03T03:40:29.117Z,2.58
2023-02-03T03:41:47.355Z,2.54
2023-02-03T03:43:11.701Z,2.53
2023-02-03T03:44:19.450Z,2.54
2023-02-03T03:45:49.440Z,2.55
2023-02-03T03:47:16.776Z,2.56
2023-02-03T03:48:32.542Z,2.41
2023-02-03T03:49:44.652Z,2.45
2023-02-03T03:51:01.345Z,2.49
2023-02-03T03:52:12.486Z,2.47
2023-02-03T03:53:20.292Z,2.45
2023-02-03T03:54:39.756Z,2.45
2023-02-03T03:55:54.280Z,2.47
2023-02-03T03:57:41.022Z,2.47
2023-02-03T03:58:49.883Z,2.40
2023-02-03T03:59:55.447Z,2.40
2023-02-03T04:01:07.575Z,2.43
2023-02-03T04:02:15.515Z,2.32
2023-02-03T04:03:28.702Z,2.40
2023-02-03T04:04:46.937Z,2.40
2023-02-03T04:05:51.770Z,2.36
2023-02-03T04:07:01.040Z,2.36
2023-02-03T04:08:08.570Z,2.33
2023-02-03T04:09:17.656Z,2.36
2023-02-03T04:10:32.041Z,2.35
2023-02-03T04:11:56.144Z,2.35
2023-02-03T04:13:01.323Z,2.30
2023-02-03T04:14:08.332Z,2.30
2023-02-03T04:15:14.099Z,2.28
2023-02-03T04:16:23.903Z,2.32
2023-02-03T04:17:28.793Z,2.26
2023-02-03T04:18:33.037Z,2.25
2023-02-03T04:19:39.468Z,2.15
2023-02-03T04:20:52.832Z,2.20
2023-02-03T04:21:58.218Z,2.17
2023-02-03T04:23:02.605Z,2.15
2023-02-03T04:24:08.837Z,2.13
2023-02-03T04:25:18.309Z,2.14
2023-02-03T04:26:23.284Z,2.11
2023-02-03T04:27:29.041Z,2.07
2023-02-03T04:28:32.903Z,2.03
2023-02-03T04:29:41.161Z,2.06
2023-02-03T04:30:48.845Z,2.05
2023-02-03T04:31:54.476Z,2.08
2023-02-03T04:33:01.369Z,2.11
2023-02-03T04:34:07.348Z,2.07
2023-02-03T04:35:19.334Z,1.95
2023-02-03T04:36:27.151Z,1.96
2023-02-03T04:37:33.138Z,1.97
2023-02-03T04:38:40.406Z,1.89
2023-02-03T04:39:44.243Z,1.89
2023-02-03T04:40:51.036Z,1.92
2023-02-03T04:42:00.218Z,1.93
2023-02-03T04:43:08.671Z,2.01
2023-02-03T04:44:18.163Z,1.97
2023-02-03T04:45:28.750Z,2.05
2023-02-03T04:46:35.905Z,2.06
2023-02-03T04:47:46.132Z,2.05
2023-02-03T04:48:53.697Z,2.01
2023-02-03T04:49:57.543Z,1.98
2023-02-03T04:51:08.767Z,2.02
2023-02-03T04:52:20.701Z,2.01
2023-02-03T04:53:29.403Z,2.01
2023-02-03T04:54:39.015Z,1.98
2023-02-03T04:55:50.161Z,1.96
2023-02-03T04:56:55.089Z,1.91
2023-02-03T04:58:03.947Z,1.97
2023-02-03T04:59:10.353Z,1.89
2023-02-03T05:00:20.619Z,1.91
2023-02-03T05:01:26.530Z,1.96
2023-02-03T05:02:30.910Z,2.00
2023-02-03T05:03:35.236Z,2.02
2023-02-03T05:04:43.071Z,1.97
2023-02-03T05:05:49.576Z,2.00
2023-02-03T05:06:53.393Z,1.93
2023-02-03T05:08:01.863Z,1.92
2023-02-03T05:09:11.342Z,1.96
2023-02-03T05:10:18.562Z,1.98
2023-02-03T05:11:36.758Z,1.96
2023-02-03T05:12:44.503Z,2.02
2023-02-03T05:13:50.055Z,2.01
2023-02-03T05:14:56.180Z,2.02
2023-02-03T05:16:04.499Z,2.04
2023-02-03T05:17:08.504Z,1.98
2023-02-03T05:18:19.497Z,1.98
2023-02-03T05:19:31.058Z,1.96
2023-02-03T05:20:40.539Z,1.95
2023-02-03T05:21:48.709Z,1.81
2023-02-03T05:22:54.745Z,1.84
2023-02-03T05:24:00.965Z,1.86
2023-02-03T05:25:05.515Z,1.83
2023-02-03T05:26:11.973Z,1.82
2023-02-03T05:27:22.255Z,1.84
2023-02-03T05:28:26.416Z,1.80
2023-02-03T05:29:30.154Z,1.79
2023-02-03T05:30:35.358Z,1.78
2023-02-03T05:31:45.148Z,1.79
2023-02-03T05:32:53.535Z,1.78
2023-02-03T05:34:00.941Z,1.85
2023-02-03T05:35:07.353Z,1.82
2023-02-03T05:36:14.563Z,1.78
2023-02-03T05:37:18.368Z,1.81
2023-02-03T05:38:23.389Z,1.81
2023-02-03T05:39:26.837Z,1.84
2023-02-03T05:40:49.092Z,1.82
2023-02-03T05:41:52.779Z,1.86
2023-02-03T05:42:56.643Z,1.87
2023-02-03T05:44:00.266Z,1.81
2023-02-03T05:45:04.679Z,1.86
2023-02-03T05:46:14.723Z,1.88
2023-02-03T05:47:22.517Z,1.81
2023-02-03T05:48:30.758Z,1.83
2023-02-03T05:49:41.665Z,1.80
2023-02-03T05:50:45.910Z,1.83
2023-02-03T05:51:54.660Z,1.83
2023-02-03T05:53:02.856Z,1.86
2023-02-03T05:54:08.253Z,1.88
2023-02-03T05:55:26.103Z,1.86
2023-02-03T05:56:33.936Z,1.87
2023-02-03T05:57:38.884Z,1.76
2023-02-03T05:58:44.995Z,1.82
2023-02-03T05:59:51.449Z,1.87
2023-02-03T06:00:57.387Z,1.90
2023-02-03T06:02:09.513Z,1.93
2023-02-03T06:03:16.868Z,1.93
2023-02-03T06:04:21.553Z,1.88
2023-02-03T06:05:30.749Z,1.87
2023-02-03T06:06:40.229Z,1.85
2023-02-03T06:07:51.334Z,1.79
2023-02-03T06:08:57.347Z,1.79
2023-02-03T06:10:00.943Z,1.81
2023-02-03T06:11:08.537Z,1.85
2023-02-03T06:12:15.318Z,1.76
2023-02-03T06:13:24.960Z,1.72
2023-02-03T06:14:39.089Z,1.68
2023-02-03T06:15:49.297Z,1.66
2023-02-03T06:16:55.640Z,1.73
2023-02-03T06:18:01.704Z,1.79
2023-02-03T06:19:06.964Z,1.82
2023-02-03T06:20:19.854Z,1.84
2023-02-03T06:21:25.379Z,1.85
2023-02-03T06:22:30.617Z,1.89
2023-02-03T06:23:34.934Z,1.89
2023-02-03T06:24:43.365Z,1.87
2023-02-03T06:27:20.925Z,1.78
2023-02-03T06:28:24.608Z,1.75
2023-02-03T06:29:29.524Z,1.71
2023-02-03T06:30:34.787Z,1.74
2023-02-03T06:31:39.528Z,1.76
2023-02-03T06:32:47.470Z,1.81
2023-02-03T06:33:53.164Z,1.76
2023-02-03T06:35:02.238Z,1.79
2023-02-03T06:36:06.373Z,1.86
2023-02-03T06:37:19.776Z,1.85
2023-02-03T06:38:27.531Z,1.86
2023-02-03T06:39:37.876Z,1.88
2023-02-03T06:40:44.062Z,1.83
2023-02-03T06:41:49.218Z,1.89
2023-02-03T06:42:54.648Z,1.86
2023-02-03T07:21:20.257Z,2.22
2023-02-03T07:22:26.113Z,2.29
2023-02-03T07:23:31.034Z,2.31
2023-02-03T07:24:48.476Z,2.34
2023-02-03T07:25:55.240Z,2.30
2023-02-03T07:27:00.863Z,2.33
2023-02-03T07:28:08.372Z,2.25
2023-02-03T07:29:14.559Z,2.34
2023-02-03T07:30:24.541Z,2.39
2023-02-03T07:31:37.620Z,2.47
2023-02-03T07:32:54.753Z,2.53
2023-02-03T07:34:01.416Z,2.56
2023-02-03T07:35:09.857Z,2.61
2023-02-03T07:36:13.399Z,2.66
2023-02-03T07:37:18.778Z,2.69
2023-02-03T07:38:28.462Z,2.68
2023-02-03T07:39:34.315Z,2.75
2023-02-03T07:40:39.548Z,2.83
2023-02-03T07:41:46.637Z,2.84
2023-02-03T07:42:51.093Z,2.82
2023-02-03T07:43:58.020Z,2.74
2023-02-03T07:45:03.873Z,2.87
2023-02-03T07:46:09.442Z,2.91
2023-02-03T07:47:17.788Z,2.98
2023-02-03T07:49:10.898Z,3.02
2023-02-03T07:50:21.455Z,3.04
2023-02-03T07:51:37.595Z,3.04
2023-02-03T07:52:42.228Z,2.95
2023-02-03T07:53:47.129Z,2.96
2023-02-03T07:54:53.463Z,2.98
2023-02-03T07:56:05.599Z,3.00
2023-02-03T07:57:10.782Z,3.07
2023-02-03T07:58:15.559Z,3.09
2023-02-03T07:59:19.631Z,3.05
2023-02-03T08:00:26.611Z,3.03
2023-02-03T08:01:34.843Z,2.98
2023-02-03T08:02:48.052Z,2.98
2023-02-03T08:03:55.191Z,3.07
2023-02-03T08:04:59.205Z,3.06
2023-02-03T08:06:02.869Z,3.09
2023-02-03T08:07:06.497Z,3.09
2023-02-03T08:08:10.022Z,2.94
2023-02-03T08:09:13.751Z,2.99
2023-02-03T08:10:18.518Z,2.96
2023-02-03T08:11:22.452Z,2.98
2023-02-03T08:12:26.180Z,2.98
2023-02-03T08:13:30.804Z,2.99
2023-02-03T08:14:34.500Z,2.98
2023-02-03T08:15:38.103Z,3.05
2023-02-03T08:16:47.783Z,3.05
2023-02-03T08:17:59.183Z,3.01
2023-02-03T08:19:06.431Z,3.03
2023-02-03T08:20:12.896Z,3.00
2023-02-03T08:21:19.306Z,3.02
2023-02-03T08:22:23.515Z,2.96
2023-02-03T08:23:27.688Z,2.91
2023-02-03T08:24:32.411Z,2.95
2023-02-03T08:25:50.958Z,2.87
2023-02-03T08:27:11.621Z,2.91
2023-02-03T08:28:17.377Z,2.96
2023-02-03T08:29:26.790Z,2.94
2023-02-03T08:30:37.902Z,2.94
2023-02-03T08:31:47.892Z,2.94
2023-02-03T08:33:01.073Z,2.95
2023-02-03T08:34:09.960Z,2.84
2023-02-03T08:35:16.495Z,2.85
2023-02-03T08:36:22.442Z,2.86
2023-02-03T08:37:30.147Z,2.92
2023-02-03T08:38:37.238Z,2.92
2023-02-03T08:39:42.235Z,2.90
2023-02-03T08:42:18.621Z,3.00
2023-02-03T08:43:26.727Z,2.99
2023-02-03T08:44:37.597Z,2.98
2023-02-03T08:45:43.097Z,2.96
2023-02-03T08:46:51.465Z,3.00
2023-02-03T08:47:58.564Z,2.98
2023-02-03T08:49:11.782Z,3.03
2023-02-03T08:50:22.359Z,3.06
2023-02-03T08:51:30.761Z,2.99
2023-02-03T08:52:36.488Z,3.03
2023-02-03T08:53:42.742Z,3.09
2023-02-03T08:54:55.353Z,3.14
2023-02-03T08:57:42.238Z,3.13
2023-02-03T08:58:50.570Z,3.11
2023-02-03T08:59:55.855Z,3.13
2023-02-03T09:01:14.301Z,3.13
2023-02-03T09:02:22.023Z,3.13
2023-02-03T09:03:26.374Z,3.19
2023-02-03T09:04:30.485Z,3.21
2023-02-03T09:05:38.945Z,3.28
2023-02-03T09:06:52.864Z,3.38
2023-02-03T09:07:58.449Z,3.43
2023-02-03T09:09:04.452Z,3.46
2023-02-03T09:10:17.171Z,3.51
2023-02-03T09:11:21.506Z,3.60
2023-02-03T09:12:27.277Z,3.61
2023-02-03T09:13:30.855Z,3.64
2023-02-03T09:14:36.142Z,3.62
2023-02-03T09:15:44.637Z,3.61
2023-02-03T09:16:48.833Z,3.66
2023-02-03T09:17:53.792Z,3.63
2023-02-03T09:18:57.616Z,3.69
2023-02-03T09:20:01.555Z,3.73
2023-02-03T09:21:15.992Z,3.75
2023-02-03T09:22:31.228Z,3.71
2023-02-03T09:23:36.972Z,3.81
2023-02-03T09:24:44.048Z,3.83
2023-02-03T09:25:51.264Z,3.88
2023-02-03T09:26:56.076Z,3.89
2023-02-03T09:28:03.077Z,3.90
2023-02-03T09:29:08.503Z,3.90
2023-02-03T09:30:22.792Z,3.93
2023-02-03T09:31:36.637Z,3.96
2023-02-03T09:32:50.402Z,4.04
2023-02-03T09:33:55.854Z,4.00
2023-02-03T09:34:59.933Z,4.06
2023-02-03T09:36:06.247Z,4.02
2023-02-03T09:37:10.479Z,3.98
2023-02-03T09:38:14.154Z,3.96
2023-02-03T09:39:18.752Z,3.96
2023-02-03T09:40:35.310Z,4.04
2023-02-03T09:41:50.732Z,4.01
2023-02-03T09:43:43.261Z,4.10
2023-02-03T09:45:18.713Z,4.14
2023-02-03T09:46:31.145Z,4.20
2023-02-03T09:47:41.753Z,4.28
2023-02-03T09:50:54.771Z,4.37
2023-02-03T09:52:25.960Z,4.34
2023-02-03T09:53:59.832Z,4.32
2023-02-03T09:55:39.016Z,4.29
2023-02-03T09:56:52.580Z,4.19
2023-02-03T09:58:38.262Z,4.14
2023-02-03T09:59:42.967Z,4.21
2023-02-03T10:01:06.819Z,4.18
2023-02-03T10:02:13.434Z,4.17
2023-02-03T10:04:08.239Z,4.20
2023-02-03T10:05:49.116Z,4.20
2023-02-03T10:07:05.240Z,4.12
2023-02-03T10:08:21.787Z,4.12
2023-02-03T10:10:23.265Z,4.05
2023-02-03T10:12:03.485Z,3.99
2023-02-03T10:13:33.695Z,3.93
2023-02-03T10:15:01.557Z,3.99
2023-02-03T10:16:17.221Z,3.97
2023-02-03T10:17:38.990Z,3.87
2023-02-03T10:18:54.071Z,3.87
2023-02-03T10:20:09.585Z,3.89
2023-02-03T10:21:33.850Z,3.93
2023-02-03T10:23:00.491Z,3.82
2023-02-03T10:24:49.082Z,3.79
2023-02-03T10:25:58.079Z,3.83
2023-02-03T10:27:07.960Z,3.88
2023-02-03T10:28:30.234Z,3.90
2023-02-03T10:29:43.133Z,3.91
2023-02-03T10:31:01.260Z,3.99
2023-02-03T10:32:16.636Z,4.00
2023-02-03T10:33:23.050Z,4.00
2023-02-03T10:34:27.335Z,4.04
2023-02-03T10:36:10.804Z,4.06
2023-02-03T10:37:37.280Z,4.08
2023-02-03T10:39:45.446Z,4.00
2023-02-03T10:40:51.918Z,3.93
2023-02-03T10:41:56.355Z,3.98
2023-02-03T10:43:22.360Z,4.01
2023-02-03T10:44:51.307Z,3.99
2023-02-03T10:46:14.132Z,4.03
2023-02-03T10:47:53.021Z,3.97
2023-02-03T10:48:59.168Z,3.98
2023-02-03T10:50:17.198Z,3.83
2023-02-03T10:51:44.351Z,3.91
2023-02-03T10:52:49.816Z,3.95
2023-02-03T10:53:55.875Z,3.91
2023-02-03T10:55:31.912Z,3.92
2023-02-03T10:56:42.973Z,3.85
2023-02-03T10:57:50.721Z,3.78
2023-02-03T10:58:59.480Z,3.77
2023-02-03T11:00:35.282Z,3.70
2023-02-03T11:01:49.657Z,3.67
2023-02-03T11:03:11.023Z,3.60
2023-02-03T11:04:34.568Z,3.56
2023-02-03T11:05:43.147Z,3.53
2023-02-03T11:07:07.561Z,3.58
2023-02-03T11:08:35.436Z,3.53
2023-02-03T11:09:43.160Z,3.50
2023-02-03T11:10:48.334Z,3.43
2023-02-03T11:12:17.334Z,3.41
2023-02-03T11:13:27.489Z,3.39
2023-02-03T11:14:48.143Z,3.33
2023-02-03T11:16:22.229Z,3.38
2023-02-03T11:17:30.615Z,3.36
2023-02-03T11:18:59.557Z,3.35
2023-02-03T11:20:17.545Z,3.37
2023-02-03T11:21:42.938Z,3.31
2023-02-03T11:22:57.258Z,3.34
2023-02-03T11:24:29.793Z,3.31
2023-02-03T11:25:35.710Z,3.24
2023-02-03T11:26:56.805Z,3.31
2023-02-03T11:28:09.399Z,3.30
2023-02-03T11:29:28.483Z,3.27
2023-02-03T11:30:39.805Z,3.30
2023-02-03T11:31:54.563Z,3.21
2023-02-03T11:33:02.963Z,3.15
2023-02-03T11:34:26.144Z,3.17
2023-02-03T11:35:40.891Z,3.20
2023-02-03T11:36:46.603Z,3.18
2023-02-03T11:37:58.029Z,3.19
2023-02-03T11:39:36.728Z,3.17
2023-02-03T11:40:44.047Z,3.19
2023-02-03T11:41:50.509Z,3.23
2023-02-03T11:43:02.192Z,3.28
2023-02-03T11:44:31.983Z,3.21
2023-02-03T11:45:54.318Z,3.10
2023-02-03T11:47:29.558Z,2.96
2023-02-03T11:49:04.137Z,2.88
2023-02-03T11:50:30.840Z,2.91
2023-02-03T11:51:51.676Z,2.87
2023-02-03T11:53:55.177Z,2.81
2023-02-03T11:55:15.613Z,2.69
2023-02-03T11:56:54.285Z,2.70
2023-02-03T11:58:33.747Z,2.80
2023-02-03T12:00:13.626Z,2.81
2023-02-03T12:01:57.859Z,2.81
2023-02-03T12:03:20.455Z,2.82
2023-02-03T12:05:01.228Z,2.87
2023-02-03T12:06:38.364Z,2.87
2023-02-03T12:08:38.095Z,2.91
2023-02-03T12:10:43.846Z,2.93
2023-02-03T12:12:37.290Z,2.92
2023-02-03T12:14:31.720Z,2.96
2023-02-03T12:16:05.169Z,3.00
2023-02-03T12:17:47.159Z,2.95
2023-02-03T12:19:20.226Z,2.95
2023-02-03T12:20:57.192Z,2.97
2023-02-03T12:22:10.578Z,3.04
2023-02-03T12:23:27.195Z,3.03
2023-02-03T12:24:45.677Z,3.09
2023-02-03T12:26:22.645Z,3.06
2023-02-03T12:27:28.015Z,3.10
2023-02-03T12:28:50.482Z,3.14
2023-02-03T12:30:23.125Z,3.12
2023-02-03T12:31:52.347Z,3.15
2023-02-03T12:33:03.407Z,3.16
2023-02-03T12:34:38.505Z,3.08
2023-02-03T12:36:08.547Z,3.08
2023-02-03T12:37:36.843Z,3.13
2023-02-03T12:38:56.631Z,3.13
2023-02-03T12:40:46.048Z,3.15
2023-02-03T12:42:22.375Z,3.18
2023-02-03T12:43:43.196Z,3.20
2023-02-03T12:45:06.834Z,3.16
2023-02-03T12:46:31.005Z,3.18
2023-02-03T12:48:07.444Z,3.13
2023-02-03T12:49:43.638Z,3.13
2023-02-03T12:50:56.670Z,3.17
2023-02-03T12:52:22.944Z,3.14
2023-02-03T12:53:58.244Z,3.19
2023-02-03T12:55:51.900Z,3.21
2023-02-03T12:57:16.503Z,3.21
2023-02-03T12:58:40.107Z,3.16
2023-02-03T12:59:52.425Z,3.19
2023-02-03T13:01:25.187Z,3.16
2023-02-03T13:02:43.395Z,3.19
2023-02-03T13:04:09.242Z,3.22
2023-02-03T13:05:31.291Z,3.24
2023-02-03T13:07:15.431Z,3.25
2023-02-03T13:08:26.369Z,3.23
2023-02-03T13:10:35.428Z,3.25
2023-02-03T13:11:57.539Z,3.25
2023-02-03T13:13:07.508Z,3.22
2023-02-03T13:14:37.145Z,3.28
2023-02-03T13:15:48.096Z,3.28
2023-02-03T13:17:22.290Z,3.29
2023-02-03T13:18:43.643Z,3.28
2023-02-03T13:20:34.331Z,3.29
2023-02-03T13:21:42.115Z,3.29
2023-02-03T13:22:53.108Z,3.28
2023-02-03T13:24:37.893Z,3.29
2023-02-03T13:26:05.780Z,3.27
2023-02-03T13:27:36.865Z,3.26
2023-02-03T13:29:24.483Z,3.26
2023-02-03T13:30:51.279Z,3.28
2023-02-03T13:32:19.364Z,3.19
2023-02-03T13:33:34.484Z,3.20
2023-02-03T13:35:40.920Z,3.21
2023-02-03T13:37:14.537Z,3.20
2023-02-03T13:38:49.277Z,3.24
2023-02-03T13:40:13.104Z,3.22
2023-02-03T13:41:38.489Z,3.21
2023-02-03T13:43:01.603Z,3.20
2023-02-03T13:44:12.962Z,3.24
2023-02-03T13:46:06.320Z,3.24
2023-02-03T13:47:22.081Z,3.23
2023-02-03T13:49:02.503Z,3.27
2023-02-03T13:50:24.517Z,3.29
2023-02-03T13:51:38.312Z,3.28
2023-02-03T13:53:20.639Z,3.29
2023-02-03T13:54:43.819Z,3.24
2023-02-03T13:56:05.153Z,3.19
2023-02-03T13:57:38.266Z,3.17
2023-02-03T13:58:58.526Z,3.12
2023-02-03T14:01:08.300Z,3.15
2023-02-03T14:02:28.536Z,3.15
2023-02-03T14:03:37.175Z,3.20
2023-02-03T14:04:46.782Z,3.18
2023-02-03T14:05:56.420Z,3.14
2023-02-03T14:07:30.418Z,3.18
2023-02-03T14:08:35.914Z,3.15
2023-02-03T14:09:41.397Z,3.12
2023-02-03T14:13:00.251Z,3.02
2023-02-03T14:14:13.142Z,3.04
2023-02-03T14:15:26.301Z,3.04
2023-02-03T14:16:46.471Z,3.06
2023-02-03T14:17:58.302Z,3.08
2023-02-03T14:19:08.068Z,3.03
2023-02-03T14:20:43.673Z,3.06
2023-02-03T14:22:15.918Z,3.02
2023-02-03T14:23:34.070Z,3.03
2023-02-03T14:24:54.970Z,3.09
2023-02-03T14:26:15.320Z,3.10
2023-02-03T14:27:29.264Z,3.08
2023-02-03T14:28:46.777Z,3.07
2023-02-03T14:30:20.864Z,3.11
2023-02-03T14:31:48.963Z,3.08
2023-02-03T14:33:00.956Z,3.03
2023-02-03T14:34:17.318Z,3.07
2023-02-03T14:35:40.705Z,3.10
2023-02-03T14:37:03.925Z,3.06
2023-02-03T14:38:54.176Z,3.07
2023-02-03T14:40:14.799Z,3.06
2023-02-03T14:41:41.360Z,3.00
2023-02-03T14:43:29.060Z,2.99
2023-02-03T14:45:28.268Z,2.97
2023-02-03T14:46:56.348Z,3.04
2023-02-03T14:48:27.211Z,3.04
2023-02-03T14:50:08.151Z,2.96
2023-02-03T14:52:21.389Z,3.07
2023-02-03T14:54:04.065Z,3.04
2023-02-03T14:55:46.376Z,3.07
2023-02-03T14:57:36.727Z,3.08
2023-02-03T14:59:01.171Z,3.03
2023-02-03T15:00:34.506Z,3.03
2023-02-03T15:01:42.483Z,3.07
2023-02-03T15:03:10.552Z,3.07
2023-02-03T15:04:19.985Z,3.06
2023-02-03T15:05:35.421Z,3.09
2023-02-03T15:06:49.397Z,3.09
2023-02-03T15:07:57.060Z,3.04
2023-02-03T15:09:14.072Z,3.06
2023-02-03T15:10:24.659Z,3.11
2023-02-03T15:11:58.988Z,3.07
2023-02-03T15:13:03.335Z,3.13
2023-02-03T15:14:31.420Z,3.08
2023-02-03T15:15:43.734Z,3.12
2023-02-03T15:17:02.664Z,3.14
2023-02-03T15:18:49.160Z,3.10
2023-02-03T15:19:56.152Z,3.08
2023-02-03T15:21:04.975Z,3.12
2023-02-03T15:22:29.015Z,3.14
2023-02-03T15:23:49.772Z,3.13
2023-02-03T15:25:01.317Z,3.15
2023-02-03T15:26:23.795Z,3.10
2023-02-03T15:27:32.860Z,3.10
2023-02-03T15:28:36.740Z,3.12
2023-02-03T15:29:46.142Z,3.17
2023-02-03T15:31:22.912Z,3.13
2023-02-03T15:32:39.822Z,3.13
2023-02-03T15:33:46.764Z,3.19
2023-02-03T15:34:53.694Z,3.22
2023-02-03T15:36:35.819Z,3.16
2023-02-03T15:38:02.459Z,3.21
2023-02-03T15:39:46.168Z,3.15
2023-02-03T15:40:57.890Z,3.13
2023-02-03T15:42:08.692Z,3.15
2023-02-03T15:43:30.507Z,3.13
2023-02-03T15:44:50.575Z,3.14
2023-02-03T15:46:36.163Z,3.07
2023-02-03T15:48:00.364Z,3.06
2023-02-03T15:49:28.379Z,2.99
2023-02-03T15:50:47.950Z,3.08
2023-02-03T15:52:10.321Z,3.07
2023-02-03T15:53:46.463Z,3.10
2023-02-03T15:55:12.552Z,3.03
2023-02-03T15:56:35.517Z,2.91
2023-02-03T15:57:42.972Z,3.00
2023-02-03T15:58:51.881Z,2.99
2023-02-03T16:00:09.618Z,3.06
2023-02-03T16:01:22.468Z,3.07
2023-02-03T16:03:03.207Z,3.10
2023-02-03T16:04:22.565Z,3.12
2023-02-03T16:05:38.435Z,3.06
2023-02-03T16:06:52.349Z,3.07
2023-02-03T16:08:20.467Z,3.05
2023-02-03T16:09:41.517Z,3.13
2023-02-03T16:10:53.078Z,3.15
2023-02-03T16:12:28.441Z,3.10
2023-02-03T16:13:45.439Z,3.17
2023-02-03T16:14:55.040Z,3.21
2023-02-03T16:16:28.560Z,3.23
2023-02-03T16:17:40.997Z,3.27
2023-02-03T16:18:58.600Z,3.21
2023-02-03T16:20:24.600Z,3.23
2023-02-03T16:21:54.065Z,3.22
2023-02-03T16:23:30.057Z,3.30
2023-02-03T16:24:33.973Z,3.31
2023-02-03T16:25:40.489Z,3.31
2023-02-03T16:26:45.085Z,3.35
2023-02-03T16:28:32.376Z,3.41
2023-02-03T16:29:59.166Z,3.42
2023-02-03T16:31:45.071Z,3.46
2023-02-03T16:33:46.925Z,3.50
2023-02-03T16:35:17.823Z,3.58
2023-02-03T16:36:43.684Z,3.60
2023-02-03T16:38:09.453Z,3.65
2023-02-03T16:39:42.855Z,3.70
2023-02-03T16:41:12.041Z,3.73
2023-02-03T16:43:03.999Z,3.81
2023-02-03T16:44:46.291Z,3.80
2023-02-03T16:46:17.629Z,3.84
2023-02-03T16:47:54.319Z,3.91
2023-02-03T16:49:27.031Z,3.97
2023-02-03T16:50:59.317Z,3.98
2023-02-03T16:52:10.076Z,3.97
2023-02-03T16:53:23.074Z,4.02
2023-02-03T16:54:28.951Z,4.05
2023-02-03T16:55:33.295Z,3.99
2023-02-03T16:56:42.104Z,3.98
2023-02-03T16:57:46.491Z,3.99
2023-02-03T16:58:50.263Z,4.01
2023-02-03T16:59:54.111Z,4.03
2023-02-03T17:01:09.772Z,4.05
2023-02-03T17:02:33.416Z,4.12
2023-02-03T17:03:41.942Z,4.12
2023-02-03T17:04:49.116Z,4.17
2023-02-03T17:05:58.652Z,4.19
2023-02-03T17:07:06.910Z,4.25
2023-02-03T17:08:24.968Z,4.25
2023-02-03T17:09:37.316Z,4.26
2023-02-03T17:10:46.778Z,4.29
2023-02-03T17:11:55.164Z,4.27
2023-02-03T17:13:04.128Z,4.29
2023-02-03T17:14:09.447Z,4.37
2023-02-03T17:15:14.509Z,4.37
2023-02-03T17:16:23.276Z,4.39
2023-02-03T17:17:32.440Z,4.43
2023-02-03T17:18:36.681Z,4.39
2023-02-03T17:19:43.741Z,4.41
2023-02-03T17:20:58.129Z,4.41
2023-02-03T17:22:07.069Z,4.37
2023-02-03T17:23:27.730Z,4.42
2023-02-03T17:24:33.659Z,4.41
2023-02-03T17:25:40.068Z,4.43
2023-02-03T17:26:50.530Z,4.46
2023-02-03T17:27:55.631Z,4.48
2023-02-03T17:29:04.710Z,4.51
2023-02-03T17:30:13.274Z,4.54
2023-02-03T17:31:34.276Z,4.55
2023-02-03T17:32:38.363Z,4.59
2023-02-03T17:33:54.388Z,4.56
2023-02-03T17:35:01.803Z,4.58
2023-02-03T17:36:19.610Z,4.59
2023-02-03T17:37:23.879Z,4.64
2023-02-03T17:38:27.661Z,4.66
2023-02-03T17:53:31.735Z,4.76
2023-02-03T17:54:41.287Z,4.75
2023-02-03T17:55:50.720Z,4.70
2023-02-03T17:56:54.508Z,4.68
2023-02-03T17:57:58.513Z,4.68
2023-02-03T17:59:08.902Z,4.68
2023-02-03T18:00:18.474Z,4.69
2023-02-03T18:01:22.393Z,4.67
2023-02-03T18:02:35.163Z,4.67